Time;durP1;ratioP1;P1;durP2;ratioP2;P2;SDS_P1;SDS_P2;PMS_P1;PMS_P2;Temp;Humidity;BMP_temperature;BMP_pressure;BME280_temperature;BME280_humidity;BME280_pressure;Samples;Min_cycle;Max_cycle;Signal;HPM_P1;HPM_P2
2024/01/07 00:05:21;;;;;;;20.60;9.70;;;;;;;-1.16;100.00;98363.08;272171;1271;22327;-91
2024/01/07 00:11:24;;;;;;;19.40;9.60;;;;;;;-1.20;100.00;98365.89;273129;1272;22240;-91
2024/01/07 00:17:28;;;;;;;19.90;10.40;;;;;;;-1.25;100.00;98363.20;273084;1271;23203;-92
2024/01/07 00:23:30;;;;;;;20.90;9.80;;;;;;;-1.29;100.00;98368.04;272302;1270;23722;-90
2024/01/07 00:29:34;;;;;;;17.50;9.50;;;;;;;-1.33;100.00;98375.98;271820;1272;22571;-91
2024/01/07 00:35:36;;;;;;;20.70;10.50;;;;;;;-1.35;100.00;98381.54;271295;1271;22576;-92
2024/01/07 00:41:40;;;;;;;18.00;10.20;;;;;;;-1.40;100.00;98382.42;270419;1275;22555;-91
2024/01/07 00:47:42;;;;;;;18.80;10.90;;;;;;;-1.45;100.00;98385.50;270199;1271;26655;-91
2024/01/07 00:53:44;;;;;;;19.40;9.80;;;;;;;-1.47;100.00;98388.86;271801;1272;22563;-91
2024/01/07 00:59:46;;;;;;;16.90;9.70;;;;;;;-1.46;100.00;98389.74;270195;1270;25462;-91
2024/01/07 01:05:48;;;;;;;15.80;9.50;;;;;;;-1.48;100.00;98399.40;272079;1272;22674;-90
2024/01/07 01:11:50;;;;;;;18.10;10.90;;;;;;;-1.53;100.00;98406.74;272932;1270;22479;-91
2024/01/07 01:17:52;;;;;;;19.00;10.40;;;;;;;-1.56;100.00;98410.13;272596;1270;22219;-91
2024/01/07 01:23:54;;;;;;;18.10;9.90;;;;;;;-1.58;100.00;98411.05;273116;1268;22482;-91
2024/01/07 01:29:56;;;;;;;17.20;9.40;;;;;;;-1.60;100.00;98413.69;272885;1271;22183;-91
2024/01/07 01:35:58;;;;;;;18.50;10.90;;;;;;;-1.63;100.00;98414.63;273195;1270;22235;-91
2024/01/07 01:42:00;;;;;;;19.80;10.90;;;;;;;-1.66;100.00;98421.47;270701;1267;22541;-90
2024/01/07 01:48:02;;;;;;;18.50;10.50;;;;;;;-1.64;100.00;98423.30;271483;1271;23119;-89
2024/01/07 01:54:04;;;;;;;18.70;9.70;;;;;;;-1.69;100.00;98421.86;270594;1272;22340;-91
2024/01/07 02:00:06;;;;;;;15.00;8.90;;;;;;;-1.74;100.00;98423.73;270306;1271;22549;-90
2024/01/07 02:06:09;;;;;;;12.80;7.80;;;;;;;-1.83;100.00;98423.90;271079;1271;22536;-90
2024/01/07 02:12:11;;;;;;;15.20;8.80;;;;;;;-1.91;100.00;98430.02;272526;1271;22810;-90
2024/01/07 02:18:13;;;;;;;13.80;8.00;;;;;;;-1.96;100.00;98430.61;272819;1265;22284;-90
2024/01/07 02:24:16;;;;;;;16.80;7.80;;;;;;;-1.98;100.00;98433.30;272612;1270;23547;-89
2024/01/07 02:36:47;;;;;;;16.30;7.80;;;;;;;-2.10;100.00;98431.64;267641;1270;96559;-87
2024/01/07 02:42:49;;;;;;;12.10;7.40;;;;;;;-2.16;100.00;98429.65;272804;1272;22499;-87
2024/01/07 02:48:50;;;;;;;14.70;7.80;;;;;;;-2.18;100.00;98430.96;272711;1272;23715;-87
2024/01/07 02:54:52;;;;;;;12.70;6.60;;;;;;;-2.21;100.00;98433.77;272975;1271;23418;-87
2024/01/07 03:00:54;;;;;;;10.70;5.70;;;;;;;-2.28;100.00;98438.84;272917;1272;22399;-87
2024/01/07 03:06:56;;;;;;;11.30;5.80;;;;;;;-2.36;100.00;98442.65;272920;1272;23166;-87
2024/01/07 03:13:00;;;;;;;10.90;5.90;;;;;;;-2.43;100.00;98439.95;273004;1272;23442;-89
2024/01/07 03:19:04;;;;;;;10.30;5.20;;;;;;;-2.49;100.00;98437.98;272927;1275;22262;-87
2024/01/07 03:25:07;;;;;;;11.20;6.50;;;;;;;-2.56;100.00;98441.58;272013;1272;23130;-87
2024/01/07 03:31:11;;;;;;;13.20;6.70;;;;;;;-2.62;100.00;98447.77;272863;1271;23572;-88
2024/01/07 03:37:13;;;;;;;11.50;5.20;;;;;;;-2.66;100.00;98449.06;272897;1272;22271;-88
2024/01/07 03:43:15;;;;;;;10.30;5.30;;;;;;;-2.70;100.00;98446.14;272886;1271;22504;-87
2024/01/07 03:49:20;;;;;;;11.80;6.00;;;;;;;-2.75;100.00;98445.23;272871;1272;124689;-88
2024/01/07 03:55:22;;;;;;;12.10;5.20;;;;;;;-2.77;100.00;98449.84;273130;1272;22212;-88
2024/01/07 04:01:23;;;;;;;8.70;5.00;;;;;;;-2.81;100.00;98458.59;272989;1268;22258;-87
2024/01/07 04:07:25;;;;;;;9.80;4.70;;;;;;;-2.88;100.00;98460.48;272942;1272;22208;-90
2024/01/07 04:13:27;;;;;;;11.00;5.20;;;;;;;-2.94;100.00;98465.41;272927;1267;22219;-89
2024/01/07 04:19:29;;;;;;;9.10;4.70;;;;;;;-2.94;100.00;98466.23;273041;1272;22275;-88
2024/01/07 04:25:32;;;;;;;7.50;4.60;;;;;;;-2.97;100.00;98473.84;272848;1272;23422;-88
2024/01/07 04:31:34;;;;;;;9.10;4.80;;;;;;;-3.04;100.00;98477.62;272886;1272;22432;-90
2024/01/07 04:37:37;;;;;;;13.00;5.50;;;;;;;-3.13;100.00;98483.97;272872;1272;22372;-88
2024/01/07 04:43:40;;;;;;;9.30;5.10;;;;;;;-3.14;100.00;98490.52;272975;1272;22224;-88
2024/01/07 04:49:42;;;;;;;8.40;4.70;;;;;;;-3.16;100.00;98490.08;273125;1272;22590;-90
2024/01/07 04:55:44;;;;;;;12.60;5.50;;;;;;;-3.17;100.00;98495.55;273014;1272;23179;-89
2024/01/07 05:01:47;;;;;;;9.70;5.30;;;;;;;-3.18;100.00;98506.67;270423;1272;22535;-89
2024/01/07 05:07:49;;;;;;;13.10;5.70;;;;;;;-3.21;100.00;98509.94;271668;1278;22404;-89
2024/01/07 05:13:51;;;;;;;9.40;4.90;;;;;;;-3.26;100.00;98511.25;272897;1272;22310;-89
2024/01/07 05:19:52;;;;;;;11.20;5.30;;;;;;;-3.29;100.00;98518.91;272638;1273;22489;-91
2024/01/07 05:25:54;;;;;;;9.30;4.80;;;;;;;-3.31;100.00;98520.14;273089;1272;22440;-90
2024/01/07 05:31:58;;;;;;;9.60;4.80;;;;;;;-3.36;100.00;98521.92;272989;1275;22545;-90
2024/01/07 05:37:59;;;;;;;9.10;4.60;;;;;;;-3.40;100.00;98525.50;272733;1271;22293;-90
2024/01/07 05:44:07;;;;;;;9.50;4.30;;;;;;;-3.46;100.00;98529.23;272623;1271;23671;-91
2024/01/07 05:50:10;;;;;;;9.20;4.60;;;;;;;-3.51;100.00;98529.00;272772;1272;22209;-89
2024/01/07 05:56:12;;;;;;;9.40;4.80;;;;;;;-3.54;100.00;98527.23;270381;1273;24786;-90
2024/01/07 06:02:17;;;;;;;9.50;5.30;;;;;;;-3.54;100.00;98532.33;272113;1272;22309;-90
2024/01/07 06:08:19;;;;;;;11.50;5.10;;;;;;;-3.56;100.00;98543.11;272022;1275;22511;-90
2024/01/07 06:14:22;;;;;;;8.50;4.40;;;;;;;-3.57;100.00;98547.27;272834;1275;22545;-90
2024/01/07 06:20:25;;;;;;;9.00;4.40;;;;;;;-3.58;100.00;98551.71;270483;1272;22817;-89
2024/01/07 06:26:27;;;;;;;10.70;4.80;;;;;;;-3.57;100.00;98554.80;272989;1272;22234;-90
2024/01/07 06:32:30;;;;;;;14.60;6.20;;;;;;;-3.56;100.00;98562.91;271053;1274;22555;-92
2024/01/07 06:38:33;;;;;;;10.90;6.50;;;;;;;-3.57;100.00;98567.38;270316;1272;22556;-89
2024/01/07 06:44:38;;;;;;;15.80;7.10;;;;;;;-3.61;100.00;98569.47;273028;1271;22316;-91
2024/01/07 06:50:43;;;;;;;13.10;7.20;;;;;;;-3.63;100.00;98579.83;272323;1272;22985;-92
2024/01/07 06:56:52;;;;;;;12.10;7.20;;;;;;;-3.62;100.00;98588.98;271637;1272;22532;-91
2024/01/07 07:02:54;;;;;;;14.50;7.20;;;;;;;-3.65;100.00;98591.54;272996;1273;22306;-90
2024/01/07 07:08:57;;;;;;;12.40;6.70;;;;;;;-3.68;100.00;98594.54;272883;1263;22484;-91
2024/01/07 07:15:02;;;;;;;14.80;6.90;;;;;;;-3.68;100.00;98605.49;271522;1275;27427;-92
2024/01/07 07:21:11;;;;;;;12.20;6.70;;;;;;;-3.70;100.00;98608.46;270919;1272;23331;-92
2024/01/07 07:27:14;;;;;;;13.80;7.10;;;;;;;-3.71;100.00;98611.38;270172;1272;23953;-91
2024/01/07 07:33:17;;;;;;;11.20;6.40;;;;;;;-3.73;100.00;98616.85;271410;1262;22627;-91
2024/01/07 07:39:21;;;;;;;13.50;7.40;;;;;;;-3.70;100.00;98625.05;271579;1272;22495;-92
2024/01/07 07:45:25;;;;;;;16.00;7.70;;;;;;;-3.63;100.00;98630.19;271745;1272;23326;-93
2024/01/07 07:51:28;;;;;;;12.40;6.60;;;;;;;-3.63;100.00;98627.88;271322;1272;22550;-90
2024/01/07 07:57:30;;;;;;;11.50;6.90;;;;;;;-3.64;100.00;98632.02;269650;1272;23128;-91
2024/01/07 08:03:32;;;;;;;14.90;7.60;;;;;;;-3.67;100.00;98642.92;270646;1275;22572;-92
2024/01/07 08:09:53;;;;;;;12.20;7.00;;;;;;;-3.73;100.00;98655.86;271569;1275;22542;-90
2024/01/07 08:16:06;;;;;;;15.60;7.60;;;;;;;-3.70;100.00;98662.71;271514;1273;25568;-91
2024/01/07 08:22:25;;;;;;;15.90;7.80;;;;;;;-3.67;100.00;98668.25;271940;1272;22574;-92
2024/01/07 08:28:33;;;;;;;16.20;7.40;;;;;;;-3.68;100.00;98672.95;270192;1273;23267;-91
2024/01/07 08:34:40;;;;;;;10.40;6.40;;;;;;;-3.66;100.00;98672.52;272941;1272;23778;-92
2024/01/07 08:40:48;;;;;;;16.40;7.50;;;;;;;-3.64;100.00;98670.27;271218;1272;22560;-91
2024/01/07 08:46:50;;;;;;;15.70;8.00;;;;;;;-3.60;100.00;98676.10;270557;1272;22600;-90
2024/01/07 08:52:53;;;;;;;14.20;7.50;;;;;;;-3.62;100.00;98681.10;270967;1272;22587;-93
2024/01/07 08:58:55;;;;;;;11.80;6.30;;;;;;;-3.59;100.00;98687.48;270655;1273;22557;-91
2024/01/07 09:04:57;;;;;;;14.40;8.20;;;;;;;-3.56;100.00;98690.17;271391;1274;23189;-92
2024/01/07 09:11:00;;;;;;;12.30;7.40;;;;;;;-3.52;100.00;98696.73;272207;1274;22711;-91
2024/01/07 09:17:03;;;;;;;16.30;7.50;;;;;;;-3.54;100.00;98695.52;271248;1273;23622;-91
2024/01/07 09:23:12;;;;;;;15.60;7.10;;;;;;;-3.56;100.00;98693.85;271960;1272;23459;-91
2024/01/07 09:29:24;;;;;;;11.10;7.50;;;;;;;-3.56;100.00;98693.64;272061;1273;22555;-91
2024/01/07 09:35:32;;;;;;;15.20;7.60;;;;;;;-3.47;100.00;98694.05;269880;1273;22541;-92
2024/01/07 09:41:39;;;;;;;94.70;12.90;;;;;;;-3.42;100.00;98691.56;271498;1271;22235;-92
2024/01/07 09:47:43;;;;;;;16.50;8.10;;;;;;;-3.39;100.00;98693.88;271076;1273;23783;-91
2024/01/07 09:53:48;;;;;;;17.40;8.20;;;;;;;-3.40;100.00;98694.52;271355;1273;23633;-91
2024/01/07 09:59:51;;;;;;;15.00;7.80;;;;;;;-3.37;100.00;98693.88;271999;1273;22364;-91
2024/01/07 10:05:53;;;;;;;16.70;8.20;;;;;;;-3.37;100.00;98698.11;270844;1273;22635;-90
2024/01/07 10:11:55;;;;;;;14.90;7.30;;;;;;;-3.38;100.00;98698.13;270766;1273;22528;-90
2024/01/07 10:18:09;;;;;;;14.60;7.20;;;;;;;-3.38;100.00;98696.75;269821;1272;22582;-90
2024/01/07 10:24:12;;;;;;;19.20;8.60;;;;;;;-3.40;100.00;98696.03;270162;1272;25338;-92
2024/01/07 10:30:16;;;;;;;18.40;9.60;;;;;;;-3.36;100.00;98693.16;271845;1273;22452;-92
2024/01/07 10:36:20;;;;;;;14.80;7.50;;;;;;;-3.29;100.00;98693.02;271316;1272;23653;-91
2024/01/07 10:42:23;;;;;;;13.50;7.90;;;;;;;-3.23;100.00;98683.70;272784;1273;23416;-91
2024/01/07 10:48:29;;;;;;;19.40;9.20;;;;;;;-3.13;100.00;98677.85;271967;1275;22781;-90
2024/01/07 10:54:33;;;;;;;10.60;6.30;;;;;;;-3.24;100.00;98682.80;271558;1272;23045;-92
2024/01/07 11:00:35;;;;;;;16.00;8.40;;;;;;;-3.35;100.00;98674.35;271981;1272;22282;-92
2024/01/07 11:06:46;;;;;;;16.60;8.80;;;;;;;-3.37;100.00;98669.63;273017;1273;22447;-91
2024/01/07 11:12:58;;;;;;;16.20;8.50;;;;;;;-3.32;100.00;98678.07;272198;1274;23241;-91
2024/01/07 11:19:02;;;;;;;15.80;8.90;;;;;;;-3.26;100.00;98677.05;272831;1273;22254;-93
2024/01/07 11:25:30;;;;;;;16.70;8.80;;;;;;;-3.22;100.00;98677.69;271040;1272;22392;-91
2024/01/07 11:32:11;;;;;;;18.00;9.90;;;;;;;-3.18;100.00;98678.06;271712;1272;22561;-93
2024/01/07 11:38:43;;;;;;;19.70;9.20;;;;;;;-3.26;100.00;98678.92;271120;1272;22956;-92
2024/01/07 11:45:10;;;;;;;16.90;9.00;;;;;;;-3.32;100.00;98685.67;271689;1271;22335;-93
2024/01/07 11:51:24;;;;;;;18.60;10.00;;;;;;;-3.24;100.00;98692.77;271260;1271;22540;-91
2024/01/07 11:57:41;;;;;;;18.50;9.70;;;;;;;-3.15;100.00;98694.33;270152;1272;22582;-91
2024/01/07 12:03:59;;;;;;;20.50;9.70;;;;;;;-3.11;100.00;98693.67;270323;1256;22548;-92
2024/01/07 12:10:07;;;;;;;21.50;9.90;;;;;;;-3.21;100.00;98699.15;271024;1272;22568;-92
2024/01/07 12:16:10;;;;;;;17.30;9.60;;;;;;;-3.34;100.00;98698.81;271632;1272;22970;-92
2024/01/07 12:22:13;;;;;;;20.20;10.50;;;;;;;-3.33;100.00;98704.95;270326;1273;23935;-90
2024/01/07 12:28:19;;;;;;;21.20;11.00;;;;;;;-3.27;100.00;98715.41;270340;1272;23656;-92
2024/01/07 12:34:25;;;;;;;21.90;11.10;;;;;;;-3.38;100.00;98721.63;270029;1272;22574;-92
2024/01/07 12:40:27;;;;;;;24.20;12.60;;;;;;;-3.53;100.00;98721.91;269856;1272;24215;-92
2024/01/07 12:46:31;;;;;;;25.20;12.60;;;;;;;-3.58;100.00;98727.12;271818;1272;22964;-92
2024/01/07 12:52:40;;;;;;;23.60;11.30;;;;;;;-3.59;100.00;98738.91;271049;1260;23532;-92
2024/01/07 12:58:46;;;;;;;23.20;12.10;;;;;;;-3.58;100.00;98740.98;270473;1267;24036;-92
2024/01/07 13:05:04;;;;;;;22.10;12.20;;;;;;;-3.55;100.00;98744.99;270791;1271;24156;-92
2024/01/07 13:11:16;;;;;;;21.20;11.70;;;;;;;-3.56;100.00;98753.04;271452;1271;24863;-91
2024/01/07 13:17:37;;;;;;;25.70;13.60;;;;;;;-3.60;100.00;98753.63;270380;1272;24236;-91
2024/01/07 13:23:59;;;;;;;;;;;;;;;;;;;;;
2024/01/07 13:31:25;;;;;;;;;;;;;;;;;;;;;
2024/01/07 13:38:15;;;;;;;29.20;15.20;;;;;;;-3.84;100.00;98775.02;271494;1271;22559;-94
2024/01/07 13:44:25;;;;;;;30.50;15.40;;;;;;;-3.87;100.00;98780.73;270386;1272;22586;-91
2024/01/07 13:50:27;;;;;;;28.00;14.30;;;;;;;-3.86;100.00;98784.59;270965;1267;22187;-90
2024/01/07 13:56:35;;;;;;;30.40;15.60;;;;;;;-3.88;100.00;98787.39;270435;1272;22562;-91
2024/01/07 14:03:01;;;;;;;33.50;16.40;;;;;;;-3.92;100.00;98794.98;270899;1272;22629;-92
2024/01/07 14:09:28;;;;;;;32.50;16.20;;;;;;;-4.01;100.00;98804.70;270571;1272;24048;-91
2024/01/07 14:15:53;;;;;;;30.00;16.10;;;;;;;-4.02;100.00;98818.40;270044;1272;22551;-91
2024/01/07 14:22:03;;;;;;;25.80;15.20;;;;;;;-4.05;100.00;98824.70;270313;1272;24356;-90
2024/01/07 14:28:08;;;;;;;29.70;16.20;;;;;;;-4.09;100.00;98828.10;271638;1273;22244;-92
2024/01/07 14:34:10;;;;;;;30.80;15.30;;;;;;;-4.12;100.00;98827.50;271066;1272;24225;-90
2024/01/07 14:40:13;;;;;;;33.80;16.30;;;;;;;-4.12;100.00;98829.95;270907;1272;23484;-91
2024/01/07 14:46:19;;;;;;;31.10;17.50;;;;;;;-4.14;100.00;98833.89;271626;1272;22258;-91
2024/01/07 14:52:21;;;;;;;26.10;14.50;;;;;;;-4.23;100.00;98839.27;271495;1271;22352;-90
2024/01/07 14:58:25;;;;;;;31.60;13.60;;;;;;;-4.34;100.00;98845.05;269991;1272;23312;-90
2024/01/07 15:04:28;;;;;;;24.90;13.50;;;;;;;-4.46;100.00;98855.27;271923;1272;22842;-91
2024/01/07 15:10:30;;;;;;;22.00;12.80;;;;;;;-4.55;100.00;98861.05;273303;1272;22181;-91
2024/01/07 15:16:37;;;;;;;27.80;13.40;;;;;;;-4.62;100.00;98861.45;272721;1266;22581;-91
2024/01/07 15:22:41;;;;;;;25.00;13.10;;;;;;;-4.65;100.00;98864.88;270647;1272;25381;-90
2024/01/07 15:28:46;;;;;;;29.60;14.00;;;;;;;-4.73;100.00;98870.17;273068;1272;23455;-90
2024/01/07 15:34:48;;;;;;;30.40;13.90;;;;;;;-4.81;100.00;98877.02;269491;1272;22546;-90
2024/01/07 15:40:50;;;;;;;26.00;13.90;;;;;;;-4.86;100.00;98883.85;272462;1272;22312;-89
2024/01/07 15:46:54;;;;;;;30.40;15.00;;;;;;;-4.88;100.00;98895.86;272951;1271;217555;-90
2024/01/07 15:52:58;;;;;;;30.80;15.20;;;;;;;-4.86;100.00;98903.86;272997;1271;23634;-89
2024/01/07 15:59:00;;;;;;;29.30;15.10;;;;;;;-4.86;100.00;98907.65;273001;1271;22957;-90
2024/01/07 16:05:03;;;;;;;37.90;17.60;;;;;;;-4.85;100.00;98912.72;272991;1272;23571;-89
2024/01/07 16:11:07;;;;;;;31.90;14.80;;;;;;;-4.94;100.00;98920.77;273297;1271;22227;-89
2024/01/07 16:17:35;;;;;;;33.10;15.80;;;;;;;-5.04;100.00;98917.20;272995;1272;22247;-90
2024/01/07 16:24:12;;;;;;;37.10;16.40;;;;;;;-5.14;100.00;98924.05;272842;1272;23182;-89
2024/01/07 16:30:31;;;;;;;32.40;15.40;;;;;;;-5.30;100.00;98935.55;272355;1272;25419;-91
2024/01/07 16:36:53;;;;;;;27.80;13.60;;;;;;;-5.43;100.00;98947.49;271900;1272;22604;-90
2024/01/07 16:43:05;;;;;;;23.90;12.30;;;;;;;-5.51;100.00;98952.48;273024;1271;23470;-90
2024/01/07 16:50:00;;;;;;;31.60;15.20;;;;;;;-5.60;100.00;98960.90;272463;1271;22359;-89
2024/01/07 16:56:14;;;;;;;33.10;15.60;;;;;;;-5.62;100.00;98965.80;273058;1271;22641;-90
2024/01/07 17:03:17;;;;;;;30.20;14.80;;;;;;;-5.66;100.00;98973.06;272614;1271;22353;-91
2024/01/07 17:09:29;;;;;;;37.30;17.90;;;;;;;-5.68;100.00;98982.46;272237;1272;22622;-89
2024/01/07 17:15:33;;;;;;;32.90;16.00;;;;;;;-5.67;100.00;98990.88;272636;1271;22408;-89
2024/01/07 17:21:35;;;;;;;35.50;16.80;;;;;;;-5.68;100.00;98997.22;273106;1272;22269;-90
2024/01/07 17:27:37;;;;;;;31.80;16.50;;;;;;;-5.70;100.00;99003.16;272702;1272;22205;-89
2024/01/07 17:33:43;;;;;;;33.70;15.80;;;;;;;-5.73;100.00;99007.74;272428;1271;23475;-89
2024/01/07 17:39:46;;;;;;;34.80;16.70;;;;;;;-5.75;100.00;99015.64;272895;1272;23565;-91
2024/01/07 17:45:50;;;;;;;34.60;16.00;;;;;;;-5.74;100.00;99025.41;273142;1271;22199;-89
2024/01/07 17:51:52;;;;;;;34.10;16.60;;;;;;;-5.77;100.00;99027.80;272137;1272;22289;-89
2024/01/07 17:57:55;;;;;;;41.90;17.20;;;;;;;-5.84;100.00;99033.80;270911;1270;23714;-90
2024/01/07 18:03:57;;;;;;;33.60;16.80;;;;;;;-5.94;100.00;99041.17;271861;1272;23572;-88
2024/01/07 18:09:59;;;;;;;37.20;16.40;;;;;;;-6.02;100.00;99050.34;270945;1272;23309;-89
2024/01/07 18:16:01;;;;;;;34.10;15.10;;;;;;;-6.07;100.00;99055.77;272611;1265;22208;-89
2024/01/07 18:22:04;;;;;;;33.70;16.40;;;;;;;-6.07;100.00;99061.11;273282;1272;23420;-89
2024/01/07 18:28:06;;;;;;;38.30;17.50;;;;;;;-6.05;100.00;99066.16;273311;1273;22193;-89
2024/01/07 18:34:20;;;;;;;37.00;16.10;;;;;;;-6.11;100.00;99072.14;272926;1271;22213;-90
2024/01/07 18:40:23;;;;;;;33.50;14.70;;;;;;;-6.20;100.00;99079.64;272952;1272;23154;-91
2024/01/07 18:46:27;;;;;;;31.50;14.90;;;;;;;-6.24;100.00;99089.60;273009;1272;22203;-91
2024/01/07 18:52:31;;;;;;;34.40;15.90;;;;;;;-6.29;100.00;99094.65;272804;1272;22351;-90
2024/01/07 18:58:36;;;;;;;34.80;15.40;;;;;;;-6.34;100.00;99097.47;273072;1262;23603;-89
2024/01/07 19:04:40;;;;;;;;;;;;;;;-6.39;100.00;99104.64;272806;1266;22465;-89
2024/01/07 19:10:43;;;;;;;29.90;14.30;;;;;;;-6.39;100.00;99106.35;272834;1271;22320;-89
2024/01/07 19:16:45;;;;;;;30.70;16.10;;;;;;;-6.38;100.00;99110.18;272850;1271;22207;-90
2024/01/07 19:22:48;;;;;;;33.50;15.80;;;;;;;-6.32;100.00;99119.95;272954;1272;23105;-89
2024/01/07 19:28:50;;;;;;;30.80;15.80;;;;;;;-6.30;100.00;99123.63;272889;1271;22197;-89
2024/01/07 19:34:52;;;;;;;31.40;15.50;;;;;;;-6.29;100.00;99127.10;272749;1272;22448;-90
2024/01/07 19:40:54;;;;;;;28.90;14.30;;;;;;;-6.30;100.00;99128.95;272887;1272;22226;-89
2024/01/07 19:46:56;;;;;;;34.90;16.70;;;;;;;-6.29;100.00;99134.98;272874;1272;22457;-90
2024/01/07 19:52:58;;;;;;;32.00;15.90;;;;;;;-6.26;100.00;99139.84;265048;1272;10002021;-89
2024/01/07 19:59:02;;;;;;;34.90;16.30;;;;;;;-6.24;100.00;99140.64;272685;1273;22329;-89
2024/01/07 20:05:07;;;;;;;34.70;16.50;;;;;;;-6.22;100.00;99145.23;272676;1272;22233;-89
2024/01/07 20:11:20;;;;;;;26.80;12.90;;;;;;;-6.18;100.00;99150.41;272754;1265;23341;-89
2024/01/07 20:17:22;;;;;;;41.40;18.70;;;;;;;-6.16;100.00;99155.53;272800;1271;22554;-89
2024/01/07 20:23:30;;;;;;;38.30;18.00;;;;;;;-6.18;100.00;99158.88;271213;1272;22712;-89
2024/01/07 20:29:34;;;;;;;38.70;19.30;;;;;;;-6.24;100.00;99163.56;271898;1272;22207;-89
2024/01/07 20:35:36;;;;;;;41.40;19.00;;;;;;;-6.29;100.00;99166.31;272776;1272;22294;-89
2024/01/07 20:41:39;;;;;;;37.60;18.90;;;;;;;-6.31;100.00;99173.39;272916;1272;23009;-89
2024/01/07 20:47:41;;;;;;;37.00;16.40;;;;;;;-6.33;100.00;99181.22;272747;1273;22386;-88
2024/01/07 20:53:47;;;;;;;32.20;15.40;;;;;;;-6.41;100.00;99190.02;272756;1262;22258;-90
2024/01/07 20:59:49;;;;;;;36.40;16.00;;;;;;;-6.50;100.00;99194.21;272811;1272;22224;-89
2024/01/07 21:05:56;;;;;;;31.30;13.60;;;;;;;-6.51;100.00;99201.65;272659;1272;22817;-91
2024/01/07 21:12:08;;;;;;;29.90;15.70;;;;;;;-6.52;100.00;99199.89;272548;1272;22547;-90
2024/01/07 21:18:14;;;;;;;31.90;14.60;;;;;;;-6.50;100.00;99209.11;271321;1273;22517;-89
2024/01/07 21:24:16;;;;;;;30.20;14.80;;;;;;;-6.48;100.00;99213.23;271492;1272;22524;-89
2024/01/07 21:30:19;;;;;;;29.20;14.30;;;;;;;-6.46;100.00;99224.16;271185;1272;22443;-90
2024/01/07 21:36:23;;;;;;;35.60;16.50;;;;;;;-6.47;100.00;99226.65;271684;1272;22215;-89
2024/01/07 21:42:25;;;;;;;35.80;15.80;;;;;;;-6.50;100.00;99229.62;272902;1272;22210;-89
2024/01/07 21:48:27;;;;;;;34.20;15.80;;;;;;;-6.48;100.00;99236.92;272774;1272;22452;-89
2024/01/07 21:54:29;;;;;;;32.20;15.70;;;;;;;-6.53;100.00;99236.17;272811;1263;22864;-89
2024/01/07 22:00:31;;;;;;;40.80;17.70;;;;;;;-6.61;100.00;99241.50;272773;1273;22348;-90
2024/01/07 22:06:32;;;;;;;29.40;15.10;;;;;;;-6.64;100.00;99246.54;272985;1268;22174;-89
2024/01/07 22:12:34;;;;;;;31.50;14.60;;;;;;;-6.66;100.00;99252.45;272872;1272;22432;-90
2024/01/07 22:18:37;;;;;;;33.20;15.60;;;;;;;-6.69;100.00;99254.91;273047;1272;22195;-89
2024/01/07 22:24:39;;;;;;;34.50;15.30;;;;;;;-6.72;100.00;99254.04;272865;1272;22243;-89
2024/01/07 22:30:41;;;;;;;30.00;15.10;;;;;;;-6.71;100.00;99261.83;273065;1275;22316;-89
2024/01/07 22:36:43;;;;;;;43.10;17.40;;;;;;;-6.72;100.00;99265.08;272838;1272;22432;-87
2024/01/07 22:42:47;;;;;;;35.80;15.60;;;;;;;-6.74;100.00;99271.40;272669;1272;22944;-89
2024/01/07 22:48:51;;;;;;;39.20;15.70;;;;;;;-6.81;100.00;99279.06;271598;1271;22601;-89
2024/01/07 22:54:53;;;;;;;34.70;15.30;;;;;;;-6.88;100.00;99285.19;272436;1272;23017;-90
2024/01/07 23:00:55;;;;;;;32.50;13.70;;;;;;;-6.97;100.00;99289.91;272981;1275;22292;-90
2024/01/07 23:06:57;;;;;;;28.40;13.40;;;;;;;-7.12;100.00;99294.67;271376;1273;22752;-89
2024/01/07 23:12:59;;;;;;;29.20;13.70;;;;;;;-7.27;100.00;99300.66;270662;1275;23704;-89
2024/01/07 23:19:04;;;;;;;30.30;14.00;;;;;;;-7.37;100.00;99309.77;271515;1273;22221;-89
2024/01/07 23:25:06;;;;;;;33.30;14.30;;;;;;;-7.39;100.00;99317.95;272263;1272;22452;-90
2024/01/07 23:31:10;;;;;;;35.20;13.70;;;;;;;-7.39;100.00;99321.67;271650;1272;23591;-89
2024/01/07 23:37:12;;;;;;;31.80;13.80;;;;;;;-7.43;100.00;99326.37;271182;1273;22224;-89
2024/01/07 23:43:14;;;;;;;32.90;14.60;;;;;;;-7.48;100.00;99336.73;273011;1272;23453;-89
2024/01/07 23:49:17;;;;;;;29.80;14.20;;;;;;;-7.56;100.00;99343.92;272332;1272;22556;-89
2024/01/07 23:55:19;;;;;;;35.10;15.40;;;;;;;-7.63;100.00;99351.14;271291;1272;22182;-88
